createdAt,value
2018-05-24T00:01:19.855Z,24.77
2018-05-24T00:03:47.438Z,22.70
2018-05-24T00:06:15.587Z,21.57
2018-05-24T00:08:43.108Z,23.20
2018-05-24T00:11:10.668Z,21.63
2018-05-24T00:13:38.197Z,21.70
2018-05-24T00:16:06.189Z,23.73
2018-05-24T00:18:33.712Z,22.10
2018-05-24T00:21:01.293Z,22.60
2018-05-24T00:23:28.816Z,22.20
2018-05-24T00:25:56.344Z,21.87
2018-05-24T00:28:23.905Z,19.47
2018-05-24T00:30:51.431Z,20.60
2018-05-24T00:33:19.001Z,21.23
2018-05-24T00:35:46.528Z,20.80
2018-05-24T00:38:14.093Z,19.40
2018-05-24T00:40:41.626Z,22.03
2018-05-24T00:43:09.149Z,20.67
2018-05-24T00:45:36.697Z,22.47
2018-05-24T00:48:04.230Z,20.70
2018-05-24T00:50:31.784Z,20.13
2018-05-24T00:52:59.315Z,21.00
2018-05-24T00:55:38.836Z,20.23
2018-05-24T00:58:06.433Z,19.90
2018-05-24T01:00:33.952Z,21.00
2018-05-24T01:03:01.514Z,19.93
2018-05-24T01:05:29.046Z,23.70
2018-05-24T01:07:56.612Z,20.60
2018-05-24T01:10:24.141Z,23.10
2018-05-24T01:12:51.948Z,24.63
2018-05-24T01:15:19.468Z,24.07
2018-05-24T01:17:46.989Z,25.97
2018-05-24T01:20:14.572Z,25.50
2018-05-24T01:22:42.100Z,26.97
2018-05-24T01:25:09.641Z,26.60
2018-05-24T01:27:37.168Z,26.90
2018-05-24T01:30:04.752Z,28.20
2018-05-24T01:32:32.289Z,24.40
2018-05-24T01:34:59.809Z,23.83
2018-05-24T01:37:39.255Z,22.93
2018-05-24T01:40:06.796Z,23.53
2018-05-24T01:42:34.344Z,24.80
2018-05-24T01:45:01.922Z,25.67
2018-05-24T01:47:29.481Z,23.73
2018-05-24T01:49:57.059Z,21.87
2018-05-24T01:52:25.003Z,24.60
2018-05-24T01:54:52.529Z,24.10
2018-05-24T01:57:20.062Z,25.50
2018-05-24T01:59:47.617Z,23.13
2018-05-24T02:02:15.150Z,24.63
2018-05-24T02:04:42.741Z,24.60
2018-05-24T02:07:10.272Z,25.20
2018-05-24T02:09:38.003Z,24.57
2018-05-24T02:12:05.529Z,23.50
2018-05-24T02:14:33.048Z,24.83
2018-05-24T02:17:00.601Z,24.63
2018-05-24T02:19:28.167Z,24.77
2018-05-24T02:21:55.718Z,24.27
2018-05-24T02:24:23.237Z,24.90
2018-05-24T02:26:50.817Z,24.87
2018-05-24T02:29:18.365Z,21.40
2018-05-24T02:31:45.894Z,23.03
2018-05-24T02:34:13.457Z,22.47
2018-05-24T02:36:40.991Z,24.00
2018-05-24T02:39:08.552Z,25.80
2018-05-24T02:41:36.083Z,24.90
2018-05-24T02:44:03.654Z,22.43
2018-05-24T02:46:31.179Z,22.63
2018-05-24T02:48:58.707Z,24.80
2018-05-24T02:51:26.270Z,22.30
2018-05-24T02:53:53.793Z,24.80
2018-05-24T02:56:21.365Z,24.20
2018-05-24T02:58:48.897Z,23.70
2018-05-24T03:01:16.752Z,24.23
2018-05-24T03:03:44.276Z,25.00
2018-05-24T03:06:11.799Z,23.90
2018-05-24T03:08:39.365Z,27.17
2018-05-24T03:11:06.892Z,23.70
2018-05-24T03:13:34.452Z,25.27
2018-05-24T03:16:01.977Z,25.40
2018-05-24T03:18:29.879Z,24.13
2018-05-24T03:20:57.408Z,25.03
2018-05-24T03:23:24.947Z,24.57
2018-05-24T03:25:52.501Z,23.10
2018-05-24T03:28:20.028Z,24.17
2018-05-24T03:30:47.577Z,23.83
2018-05-24T03:33:15.117Z,23.10
2018-05-24T03:35:42.896Z,22.60
2018-05-24T03:38:10.419Z,23.50
2018-05-24T03:40:37.946Z,23.23
2018-05-24T03:43:05.501Z,24.73
2018-05-24T03:45:33.016Z,25.17
2018-05-24T03:48:00.564Z,24.00
2018-05-24T03:50:28.097Z,24.63
2018-05-24T03:52:55.753Z,24.80
2018-05-24T03:55:23.289Z,23.07
2018-05-24T03:57:50.877Z,24.50
2018-05-24T04:00:30.340Z,25.13
2018-05-24T04:03:10.017Z,24.63
2018-05-24T04:05:37.610Z,26.20
2018-05-24T04:08:05.073Z,24.37
2018-05-24T04:10:32.638Z,24.30
2018-05-24T04:13:00.576Z,24.60
2018-05-24T04:15:28.953Z,26.33
2018-05-24T04:17:56.484Z,26.50
2018-05-24T04:20:24.057Z,26.93
2018-05-24T04:22:51.588Z,27.97
2018-05-24T04:25:19.179Z,28.40
2018-05-24T04:27:46.748Z,24.50
2018-05-24T04:30:14.261Z,21.17
2018-05-24T04:32:41.816Z,21.57
2018-05-24T04:35:09.340Z,24.30
2018-05-24T04:37:37.071Z,24.20
2018-05-24T04:40:04.601Z,24.87
2018-05-24T04:42:32.133Z,26.23
2018-05-24T04:44:59.752Z,26.17
2018-05-24T04:47:27.281Z,24.07
2018-05-24T04:49:54.848Z,22.80
2018-05-24T04:52:22.369Z,23.07
2018-05-24T04:54:50.097Z,22.10
2018-05-24T04:57:17.633Z,23.50
2018-05-24T04:59:45.163Z,24.17
2018-05-24T05:02:12.713Z,22.33
2018-05-24T05:04:40.227Z,22.03
2018-05-24T05:07:07.772Z,23.03
2018-05-24T05:09:35.325Z,22.90
2018-05-24T05:12:02.902Z,24.20
2018-05-24T05:14:30.424Z,23.73
2018-05-24T05:16:57.949Z,23.60
2018-05-24T05:19:25.585Z,22.90
2018-05-24T05:21:53.052Z,24.80
2018-05-24T05:24:20.681Z,23.90
2018-05-24T05:26:48.200Z,26.20
2018-05-24T05:29:15.917Z,26.70
2018-05-24T05:31:43.545Z,25.70
2018-05-24T05:34:11.064Z,24.07
2018-05-24T05:36:38.692Z,25.37
2018-05-24T05:39:06.233Z,25.27
2018-05-24T05:41:33.780Z,20.03
2018-05-24T05:44:01.305Z,22.70
2018-05-24T05:46:29.060Z,20.60
2018-05-24T05:48:56.598Z,22.27
2018-05-24T05:51:24.127Z,21.57
2018-05-24T05:53:51.680Z,22.60
2018-05-24T05:56:19.224Z,23.57
2018-05-24T05:58:46.778Z,22.57
2018-05-24T06:01:14.305Z,21.47
2018-05-24T06:03:42.025Z,20.37
2018-05-24T06:06:09.544Z,21.20
2018-05-24T06:08:37.093Z,22.73
2018-05-24T06:11:04.644Z,22.23
2018-05-24T06:13:32.165Z,22.10
2018-05-24T06:15:59.720Z,23.73
2018-05-24T06:18:27.248Z,23.87
2018-05-24T06:20:54.801Z,23.50
2018-05-24T06:23:22.336Z,22.27
2018-05-24T06:25:49.865Z,23.80
2018-05-24T06:28:17.420Z,24.40
2018-05-24T06:30:44.945Z,22.33
2018-05-24T06:33:12.518Z,23.30
2018-05-24T06:35:40.045Z,24.10
2018-05-24T06:38:07.795Z,24.60
2018-05-24T06:40:35.414Z,24.97
2018-05-24T06:43:02.866Z,25.73
2018-05-24T06:45:30.420Z,23.50
2018-05-24T06:47:57.959Z,23.50
2018-05-24T06:50:25.514Z,22.07
2018-05-24T06:52:53.036Z,21.83
2018-05-24T06:55:20.808Z,19.87
2018-05-24T06:57:48.384Z,20.53
2018-05-24T07:00:15.912Z,19.70
2018-05-24T07:02:43.476Z,17.90
2018-05-24T07:05:11.006Z,18.07
2018-05-24T07:07:38.570Z,17.07
2018-05-24T07:10:06.121Z,17.70
2018-05-24T07:12:33.694Z,20.90
2018-05-24T07:15:01.224Z,19.03
2018-05-24T07:17:28.749Z,18.17
2018-05-24T07:19:56.301Z,19.10
2018-05-24T07:22:23.852Z,20.40
2018-05-24T07:24:51.424Z,19.47
2018-05-24T07:27:18.952Z,18.57
2018-05-24T07:29:46.526Z,19.87
2018-05-24T07:32:14.048Z,19.20
2018-05-24T07:34:41.581Z,19.53
2018-05-24T07:37:09.137Z,18.97
2018-05-24T07:39:36.748Z,20.43
2018-05-24T07:42:04.250Z,22.40
2018-05-24T07:44:31.777Z,20.57
2018-05-24T07:46:59.361Z,21.90
2018-05-24T07:49:26.880Z,20.60
2018-05-24T07:51:54.445Z,21.20
2018-05-24T07:54:22.023Z,20.07
2018-05-24T07:56:49.546Z,21.27
2018-05-24T07:59:17.098Z,20.57
2018-05-24T08:01:44.679Z,21.90
2018-05-24T08:04:12.691Z,20.50
2018-05-24T08:06:40.249Z,19.93
2018-05-24T08:09:07.760Z,20.70
2018-05-24T08:11:35.314Z,21.50
2018-05-24T08:14:02.856Z,20.57
2018-05-24T08:16:30.420Z,19.90
2018-05-24T08:18:57.944Z,20.67
2018-05-24T08:21:25.740Z,20.77
2018-05-24T08:23:53.277Z,20.33
2018-05-24T08:26:21.750Z,18.43
2018-05-24T08:28:50.259Z,20.20
2018-05-24T08:31:17.785Z,22.90
2018-05-24T08:33:45.349Z,22.63
2018-05-24T08:36:12.876Z,19.50
2018-05-24T08:38:40.449Z,20.23
2018-05-24T08:41:07.976Z,20.97
2018-05-24T08:43:35.501Z,19.70
2018-05-24T08:46:03.056Z,19.53
2018-05-24T08:48:30.583Z,20.20
2018-05-24T08:50:58.182Z,20.93
2018-05-24T08:53:26.295Z,17.03
2018-05-24T08:55:54.185Z,18.70
2018-05-24T08:58:21.719Z,18.20
2018-05-24T09:00:49.252Z,18.40
2018-05-24T09:03:17.290Z,15.67
2018-05-24T09:05:44.824Z,16.70
2018-05-24T09:08:12.412Z,16.20
2018-05-24T09:10:39.939Z,17.03
2018-05-24T09:13:07.467Z,15.97
2018-05-24T09:15:35.594Z,18.30
2018-05-24T09:18:03.116Z,16.90
2018-05-24T09:20:30.947Z,17.00
2018-05-24T09:22:58.453Z,18.17
2018-05-24T09:25:26.449Z,15.30
2018-05-24T09:27:54.001Z,17.73
2018-05-24T09:30:21.534Z,15.47
2018-05-24T09:32:49.113Z,15.63
2018-05-24T09:35:16.640Z,14.07
2018-05-24T09:37:44.172Z,14.53
2018-05-24T09:40:11.724Z,14.23
2018-05-24T09:42:39.252Z,15.43
2018-05-24T09:45:07.013Z,16.57
2018-05-24T09:47:34.536Z,16.03
2018-05-24T09:50:02.057Z,16.37
2018-05-24T09:52:30.117Z,16.63
2018-05-24T09:54:57.650Z,16.00
2018-05-24T09:57:25.207Z,18.57
2018-05-24T09:59:52.737Z,16.70
2018-05-24T10:02:23.248Z,16.60
2018-05-24T10:04:51.825Z,17.03
2018-05-24T10:07:24.329Z,18.47
2018-05-24T10:09:51.880Z,17.63
2018-05-24T10:12:19.411Z,17.73
2018-05-24T10:14:50.322Z,17.63
2018-05-24T10:17:17.895Z,17.10
2018-05-24T10:19:45.421Z,17.50
2018-05-24T10:22:12.972Z,17.47
2018-05-24T10:24:40.492Z,16.90
2018-05-24T10:27:08.060Z,15.63
2018-05-24T10:29:35.576Z,15.07
2018-05-24T10:32:03.656Z,15.53
2018-05-24T10:34:31.177Z,14.07
2018-05-24T10:36:58.700Z,14.90
2018-05-24T10:39:28.821Z,13.37
2018-05-24T10:41:56.349Z,13.83
2018-05-24T10:44:23.902Z,12.80
2018-05-24T10:46:51.441Z,11.57
2018-05-24T10:49:19.008Z,12.47
2018-05-24T10:51:46.545Z,12.00
2018-05-24T10:54:14.134Z,11.97
2018-05-24T10:56:47.298Z,11.90
2018-05-24T10:59:14.808Z,12.47
2018-05-24T11:01:42.360Z,12.83
2018-05-24T11:04:09.880Z,12.53
2018-05-24T11:06:38.292Z,13.10
2018-05-24T11:09:06.584Z,13.20
2018-05-24T11:11:34.670Z,13.10
2018-05-24T11:14:02.617Z,16.20
2018-05-24T11:16:30.149Z,15.37
2018-05-24T11:18:57.701Z,18.17
2018-05-24T11:21:25.252Z,16.20
2018-05-24T11:23:52.821Z,14.67
2018-05-24T11:26:20.359Z,13.33
2018-05-24T11:28:47.884Z,13.03
2018-05-24T11:31:15.437Z,12.77
2018-05-24T11:33:42.964Z,10.60
2018-05-24T11:36:10.549Z,9.50
2018-05-24T11:38:38.068Z,12.03
2018-05-24T11:41:05.648Z,11.87
2018-05-24T11:43:33.160Z,12.10
2018-05-24T11:46:00.684Z,15.17
2018-05-24T11:48:28.244Z,16.80
2018-05-24T11:50:55.999Z,15.37
2018-05-24T11:53:23.561Z,14.67
2018-05-24T11:55:51.089Z,12.73
2018-05-24T11:58:18.906Z,11.10
2018-05-24T12:00:46.429Z,9.90
2018-05-24T12:03:13.953Z,8.07
2018-05-24T12:05:41.511Z,7.20
2018-05-24T12:08:09.033Z,5.47
2018-05-24T12:10:36.586Z,5.67
2018-05-24T12:13:04.477Z,6.70
2018-05-24T12:15:32.470Z,4.93
2018-05-24T12:18:00.009Z,4.70
2018-05-24T12:20:27.640Z,5.40
2018-05-24T12:22:55.186Z,4.43
2018-05-24T12:25:22.700Z,4.43
2018-05-24T12:27:50.252Z,4.40
2018-05-24T12:30:17.768Z,5.30
2018-05-24T12:32:45.516Z,6.63
2018-05-24T12:35:13.041Z,8.73
2018-05-24T12:37:40.568Z,7.53
2018-05-24T12:40:08.113Z,8.90
2018-05-24T12:42:35.638Z,8.00
2018-05-24T12:45:03.193Z,10.30
2018-05-24T12:47:30.717Z,9.07
2018-05-24T12:49:58.294Z,7.10
2018-05-24T12:52:25.810Z,4.87
2018-05-24T12:54:53.370Z,3.13
2018-05-24T12:57:20.913Z,2.87
2018-05-24T12:59:48.443Z,2.83
2018-05-24T13:02:15.993Z,3.10
2018-05-24T13:04:43.513Z,5.03
2018-05-24T13:07:11.294Z,5.03
2018-05-24T13:09:38.844Z,4.30
2018-05-24T13:12:06.368Z,5.77
2018-05-24T13:14:33.916Z,5.77
2018-05-24T13:17:01.519Z,4.77
2018-05-24T13:19:29.000Z,4.40
2018-05-24T13:21:56.523Z,5.07
2018-05-24T13:24:24.132Z,6.00
2018-05-24T13:26:51.622Z,5.20
2018-05-24T13:29:19.149Z,5.30
2018-05-24T13:31:46.697Z,7.47
2018-05-24T13:34:14.222Z,8.40
2018-05-24T13:36:41.788Z,7.37
2018-05-24T13:39:09.313Z,7.07
2018-05-24T13:41:36.883Z,8.27
2018-05-24T13:44:04.408Z,8.40
2018-05-24T13:46:31.941Z,9.23
2018-05-24T13:48:59.501Z,10.10
2018-05-24T13:51:27.036Z,9.20
2018-05-24T13:53:54.668Z,8.90
2018-05-24T13:56:22.184Z,8.93
2018-05-24T13:58:49.996Z,8.70
2018-05-24T14:01:17.525Z,9.33
2018-05-24T14:03:45.048Z,8.20
2018-05-24T14:06:12.607Z,7.87
2018-05-24T14:08:40.122Z,8.00
2018-05-24T14:11:07.677Z,8.80
2018-05-24T14:13:35.256Z,9.60
2018-05-24T14:16:03.251Z,12.70
2018-05-24T14:18:30.834Z,13.17
2018-05-24T14:20:58.363Z,13.40
2018-05-24T14:23:25.916Z,13.87
2018-05-24T14:25:53.785Z,15.50
2018-05-24T14:28:21.378Z,17.47
2018-05-24T14:30:48.911Z,16.90
2018-05-24T14:33:16.640Z,18.07
2018-05-24T14:35:44.159Z,17.70
2018-05-24T14:38:12.707Z,19.27
2018-05-24T14:40:40.265Z,18.70
2018-05-24T14:43:08.133Z,17.20
2018-05-24T14:45:35.918Z,19.73
2018-05-24T14:48:03.455Z,19.20
2018-05-24T14:50:31.028Z,20.07
2018-05-24T14:52:58.573Z,23.00
2018-05-24T14:55:26.249Z,23.07
2018-05-24T14:57:53.889Z,23.90
2018-05-24T15:00:22.209Z,21.27
2018-05-24T15:02:49.853Z,22.47
2018-05-24T15:05:17.385Z,22.30
2018-05-24T15:07:45.349Z,24.57
2018-05-24T15:10:13.086Z,23.40
2018-05-24T15:12:41.791Z,23.67
2018-05-24T15:15:09.476Z,24.80
2018-05-24T15:17:37.310Z,25.47
2018-05-24T15:20:04.912Z,24.87
2018-05-24T15:22:32.630Z,25.27
2018-05-24T15:25:02.846Z,24.10
2018-05-24T15:27:31.711Z,23.50
2018-05-24T15:29:59.329Z,22.57
2018-05-24T15:32:26.892Z,24.27
2018-05-24T15:34:54.445Z,23.40
2018-05-24T15:37:22.083Z,24.50
2018-05-24T15:39:49.625Z,25.43
2018-05-24T15:42:17.442Z,23.00
2018-05-24T15:44:44.982Z,24.97
2018-05-24T15:47:12.585Z,23.90
2018-05-24T15:49:40.192Z,22.70
2018-05-24T15:52:07.718Z,22.27
2018-05-24T15:54:35.492Z,24.00
2018-05-24T15:57:03.001Z,22.17
2018-05-24T15:59:30.565Z,19.10
2018-05-24T16:01:58.100Z,17.63
2018-05-24T16:04:25.629Z,16.97
2018-05-24T16:06:53.191Z,16.90
2018-05-24T16:09:20.731Z,17.40
2018-05-24T16:11:48.289Z,16.73
2018-05-24T16:14:15.812Z,15.93
2018-05-24T16:16:43.377Z,16.67
2018-05-24T16:19:10.902Z,16.13
2018-05-24T16:21:38.428Z,17.23
2018-05-24T16:24:05.989Z,16.03
2018-05-24T16:26:33.614Z,15.87
2018-05-24T16:29:01.220Z,15.13
2018-05-24T16:31:28.909Z,13.83
2018-05-24T16:33:56.702Z,14.43
2018-05-24T16:36:24.361Z,14.00
2018-05-24T16:38:51.904Z,13.57
2018-05-24T16:41:19.457Z,12.00
2018-05-24T16:43:46.985Z,11.87
2018-05-24T16:46:14.685Z,12.43
2018-05-24T16:48:42.345Z,10.47
2018-05-24T16:51:11.219Z,11.10
2018-05-24T16:53:38.796Z,11.40
2018-05-24T16:56:06.389Z,10.70
2018-05-24T16:58:33.940Z,10.70
2018-05-24T17:01:01.497Z,10.33
2018-05-24T17:03:29.242Z,10.20
2018-05-24T17:05:56.782Z,9.50
2018-05-24T17:08:24.315Z,10.73
2018-05-24T17:10:52.352Z,10.07
2018-05-24T17:13:19.889Z,9.73
2018-05-24T17:15:47.488Z,8.27
2018-05-24T17:18:15.335Z,9.33
2018-05-24T17:20:42.993Z,9.13
2018-05-24T17:23:10.546Z,8.80
2018-05-24T17:25:38.215Z,10.20
2018-05-24T17:28:05.889Z,9.63
2018-05-24T17:30:33.419Z,10.17
2018-05-24T17:33:00.943Z,9.80
2018-05-24T17:35:28.845Z,9.17
2018-05-24T17:37:56.615Z,9.20
2018-05-24T17:40:25.004Z,9.30
2018-05-24T17:42:52.577Z,9.30
2018-05-24T17:45:20.328Z,10.37
2018-05-24T17:47:48.194Z,12.20
2018-05-24T17:50:15.956Z,12.00
2018-05-24T17:52:44.091Z,12.70
2018-05-24T17:55:11.640Z,12.43
2018-05-24T17:57:39.761Z,13.57
2018-05-24T18:00:07.631Z,14.17
2018-05-24T18:02:36.126Z,12.47
2018-05-24T18:05:03.877Z,12.50
2018-05-24T18:07:31.565Z,12.00
2018-05-24T18:09:59.506Z,15.47
2018-05-24T18:12:27.372Z,14.80
2018-05-24T18:14:55.247Z,15.20
2018-05-24T18:17:23.003Z,14.90
2018-05-24T18:19:50.867Z,14.73
2018-05-24T18:22:18.608Z,15.17
2018-05-24T18:24:46.499Z,15.57
2018-05-24T18:27:14.399Z,14.80
2018-05-24T18:29:42.235Z,14.60
2018-05-24T18:32:10.230Z,15.63
2018-05-24T18:34:38.550Z,15.43
2018-05-24T18:37:06.448Z,16.00
2018-05-24T18:39:34.287Z,15.40
2018-05-24T18:42:01.831Z,18.63
2018-05-24T18:44:29.444Z,22.27
2018-05-24T18:46:57.165Z,21.90
2018-05-24T18:49:24.961Z,17.30
2018-05-24T18:51:52.727Z,16.67
2018-05-24T18:54:20.593Z,16.07
2018-05-24T18:56:48.421Z,16.83
2018-05-24T18:59:16.193Z,16.40
2018-05-24T19:01:44.192Z,18.53
2018-05-24T19:04:12.450Z,20.87
2018-05-24T19:06:40.233Z,18.27
2018-05-24T19:09:07.987Z,20.80
2018-05-24T19:11:35.965Z,19.40
2018-05-24T19:14:03.935Z,19.87
2018-05-24T19:16:31.804Z,20.80
2018-05-24T19:18:59.770Z,20.37
2018-05-24T19:21:27.743Z,20.40
2018-05-24T19:23:55.710Z,20.47
2018-05-24T19:26:23.532Z,16.17
2018-05-24T19:28:51.338Z,14.47
2018-05-24T19:31:19.665Z,13.40
2018-05-24T19:33:48.507Z,12.40
2018-05-24T19:36:16.328Z,12.60
2018-05-24T19:38:44.239Z,13.77
2018-05-24T19:41:12.209Z,14.70
2018-05-24T19:43:40.159Z,11.60
2018-05-24T19:46:12.198Z,13.90
2018-05-24T19:48:40.187Z,12.63
2018-05-24T19:51:08.078Z,10.77
2018-05-24T19:53:36.562Z,12.13
2018-05-24T19:56:04.426Z,12.30
2018-05-24T19:58:32.608Z,13.43
2018-05-24T20:01:01.288Z,12.40
2018-05-24T20:03:29.552Z,13.10
2018-05-24T20:05:57.940Z,14.60
2018-05-24T20:08:25.773Z,15.30
2018-05-24T20:10:53.722Z,15.97
2018-05-24T20:13:21.571Z,17.57
2018-05-24T20:15:49.509Z,17.37
2018-05-24T20:18:17.468Z,17.37
2018-05-24T20:20:45.553Z,19.97
2018-05-24T20:23:13.415Z,17.80
2018-05-24T20:25:41.182Z,18.30
2018-05-24T20:28:08.949Z,19.37
2018-05-24T20:30:36.814Z,19.33
2018-05-24T20:33:05.292Z,19.07
2018-05-24T20:35:33.275Z,18.67
2018-05-24T20:38:01.539Z,19.50
2018-05-24T20:40:30.095Z,19.20
2018-05-24T20:42:57.883Z,14.20
2018-05-24T20:45:26.990Z,15.30
2018-05-24T20:47:54.748Z,13.10
2018-05-24T20:50:22.719Z,11.43
2018-05-24T20:52:50.561Z,11.20
2018-05-24T20:55:18.650Z,10.17
2018-05-24T20:57:47.031Z,7.67
2018-05-24T21:00:14.895Z,8.00
2018-05-24T21:02:42.633Z,8.90
2018-05-24T21:05:10.218Z,8.70
2018-05-24T21:07:38.197Z,10.43
2018-05-24T21:10:06.211Z,11.47
2018-05-24T21:12:34.330Z,11.23
2018-05-24T21:15:02.113Z,11.90
2018-05-24T21:17:29.961Z,11.90
2018-05-24T21:19:57.849Z,12.90
2018-05-24T21:22:25.797Z,12.00
2018-05-24T21:24:54.587Z,11.90
2018-05-24T21:27:22.246Z,11.80
2018-05-24T21:29:50.113Z,11.23
2018-05-24T21:32:17.878Z,11.93
2018-05-24T21:34:46.260Z,11.90
2018-05-24T21:37:14.016Z,13.47
2018-05-24T21:39:41.682Z,13.90
2018-05-24T21:42:09.339Z,13.10
2018-05-24T21:44:37.109Z,13.83
2018-05-24T21:47:04.977Z,11.50
2018-05-24T21:49:32.525Z,9.70
2018-05-24T21:52:00.082Z,9.10
2018-05-24T21:54:27.755Z,8.10
2018-05-24T21:56:55.277Z,8.80
2018-05-24T21:59:22.832Z,7.83
2018-05-24T22:01:50.354Z,8.20
2018-05-24T22:04:17.924Z,8.10
2018-05-24T22:06:45.439Z,7.87
2018-05-24T22:09:12.974Z,6.33
2018-05-24T22:11:40.520Z,6.70
2018-05-24T22:14:08.057Z,7.33
2018-05-24T22:16:35.689Z,8.73
2018-05-24T22:19:03.238Z,8.23
2018-05-24T22:21:30.809Z,8.77
2018-05-24T22:23:58.353Z,7.17
2018-05-24T22:26:25.876Z,8.57
2018-05-24T22:28:53.428Z,8.90
2018-05-24T22:31:20.950Z,8.67
2018-05-24T22:33:48.508Z,8.70
2018-05-24T22:36:16.028Z,9.60
2018-05-24T22:38:43.917Z,11.10
2018-05-24T22:41:11.448Z,10.53
2018-05-24T22:43:38.981Z,11.20
2018-05-24T22:46:06.541Z,12.27
2018-05-24T22:48:34.086Z,12.93
2018-05-24T22:51:01.645Z,14.43
2018-05-24T22:53:29.200Z,11.17
2018-05-24T22:55:56.783Z,13.60
2018-05-24T22:58:25.217Z,13.07
2018-05-24T23:00:52.743Z,13.20
2018-05-24T23:03:20.332Z,13.70
2018-05-24T23:05:47.876Z,14.70
2018-05-24T23:08:15.425Z,15.20
2018-05-24T23:10:42.957Z,13.50
2018-05-24T23:13:10.773Z,13.23
2018-05-24T23:15:38.301Z,12.47
2018-05-24T23:18:05.828Z,13.50
2018-05-24T23:20:33.385Z,13.50
2018-05-24T23:23:00.928Z,14.70
2018-05-24T23:25:28.484Z,13.07
2018-05-24T23:27:56.004Z,14.87
2018-05-24T23:30:23.896Z,12.87
2018-05-24T23:32:51.440Z,13.97
2018-05-24T23:35:18.960Z,14.70
2018-05-24T23:37:46.509Z,12.33
2018-05-24T23:40:14.027Z,15.00
2018-05-24T23:42:41.604Z,13.57
2018-05-24T23:45:09.128Z,12.77
2018-05-24T23:47:36.796Z,12.90
2018-05-24T23:50:04.686Z,12.20
2018-05-24T23:52:32.214Z,12.20
2018-05-24T23:54:59.764Z,12.93
2018-05-24T23:57:27.303Z,12.23
2018-05-24T23:59:54.851Z,11.00
